New Cumnock, United Kingdom
Current Conditions -  °F | °C
As of 5:50 PM on Monday 22 Dec 2014 (Local Time) from EGPK Reporting Station
Rain Showers Rain Showers  
Wind Chill: 41°   Ceiling: 3500
Heat Index: 46°   Visibility: 6mi
Dew Point: 46°   Wind: 12mph
Humidity: 100%   Direction: 250°WSW
Pressure: 29.68"   Gusts: NA
Location:  55.4°N, 4.18°W
Report Text: EGPK 221750Z 25010KT 9999 -SHRA FEW012 BKN035 08/08 Q1005
Loading
Personal Weather Stations






























Interactive Weather Map New forecast layout! Learn more

10-Day Weather Forecast

Advertisements
Track Severe Weather on mobile